Terminal Aerodrome Forecast
Issued by NWS

Home | Current Version | Previous Version | Text Only | Print | Product List | Glossary On
Versions: 1 2 3 4 5 6 7 8 9 10 11 12 13 14 15
000
FTPA31 PHFO 302341
TAFHJH
TAF
PHJH 302341Z 3100/3124 02013G23KT P6SM VCSH FEW010 SCT020 BKN040
      TEMPO 3100/3104 -SHRA
     FM310600 05011G16KT P6SM VCSH SCT020 BKN035
     FM311900 05018G26KT P6SM VCSH SCT020 BKN035
      AMD NOT SKED 3104/3118=

USA.gov is the U.S. government's official web portal to all federal, state and local government web resources and services.